Urb Casitas de la Fuente, Puerto Rico
Current Conditions -  °F | °C
As of 5:56 AM on Thursday 29 Jan 2015 (Local Time) from TJSJ Reporting Station
Scattered Clouds Scattered Clouds  
Wind Chill: 76°   Ceiling: Unl
Heat Index: 76°   Visibility: 10mi
Dew Point: 70°   Wind: 0mph
Humidity: 82%   Direction: NA
Pressure: 29.98"   Gusts: NA
Location:  18.3893°N, 66.2481°W
Report Text: TJSJ 290956Z 00000KT 10SM SCT075 24/21 A2998 RMK AO2 SLP151 T02440211
Loading
Personal Weather Stations






























Interactive Weather Map New forecast layout! Learn more

10-Day Weather Forecast

Advertisements
Track Severe Weather on mobile